Time;durP1;ratioP1;P1;durP2;ratioP2;P2;SDS_P1;SDS_P2;PMS_P1;PMS_P2;Temp;Humidity;BMP_temperature;BMP_pressure;BME280_temperature;BME280_humidity;BME280_pressure;Samples;Min_cycle;Max_cycle;Signal;HPM_P1;HPM_P2
2021/12/02 00:01:22;;;;;;;0.40;0.20;;;6.80;99.90;;;;;;4992438;28;20383;-69
2021/12/02 00:03:49;;;;;;;0.40;0.20;;;6.80;99.90;;;;;;4991367;28;20449;-70
2021/12/02 00:06:16;;;;;;;0.40;0.20;;;6.80;99.90;;;;;;4992145;28;20386;-69
2021/12/02 00:08:42;;;;;;;0.40;0.20;;;6.80;99.90;;;;;;4974018;28;20409;-72
2021/12/02 00:11:09;;;;;;;0.40;0.30;;;6.80;99.90;;;;;;4991828;28;20395;-70
2021/12/02 00:21:22;;;;;;;0.40;0.20;;;6.80;99.90;;;;;;4991973;28;20402;-70
2021/12/02 00:23:52;;;;;;;0.40;0.20;;;6.80;99.90;;;;;;4991374;28;20397;-71
2021/12/02 00:26:20;;;;;;;0.40;0.30;;;6.80;99.90;;;;;;4991883;28;20724;-70
2021/12/02 00:28:54;;;;;;;0.40;0.20;;;6.80;99.90;;;;;;4991226;28;20378;-71
2021/12/02 00:31:22;;;;;;;0.40;0.20;;;6.80;99.90;;;;;;4991517;28;20449;-70
2021/12/02 00:33:53;;;;;;;0.40;0.20;;;6.80;99.90;;;;;;4991227;28;20494;-70
2021/12/02 00:36:22;;;;;;;9.80;0.60;;;6.80;99.90;;;;;;4976861;28;20388;-70
2021/12/02 00:38:48;;;;;;;0.40;0.20;;;6.80;99.90;;;;;;4971702;28;20399;-70
2021/12/02 00:41:16;;;;;;;0.40;0.20;;;6.80;99.90;;;;;;4972188;28;20802;-71
2021/12/02 00:43:43;;;;;;;0.40;0.30;;;6.80;99.90;;;;;;4972140;28;20384;-71
2021/12/02 00:46:12;;;;;;;0.40;0.20;;;6.80;99.90;;;;;;4971823;28;20458;-70
2021/12/02 00:48:39;;;;;;;0.40;0.20;;;6.80;99.90;;;;;;4972153;28;20384;-70
2021/12/02 00:51:06;;;;;;;0.40;0.20;;;6.80;99.90;;;;;;4971390;28;20755;-71
2021/12/02 00:53:33;;;;;;;0.40;0.20;;;6.80;99.90;;;;;;4971677;28;20419;-70
2021/12/02 00:56:03;;;;;;;0.40;0.20;;;6.70;99.90;;;;;;4970453;28;20589;-71
2021/12/02 00:58:30;;;;;;;0.40;0.20;;;6.70;99.90;;;;;;4972237;28;20471;-71
2021/12/02 01:00:57;;;;;;;0.40;0.20;;;6.80;99.90;;;;;;4971448;28;20493;-71
2021/12/02 01:03:24;;;;;;;0.40;0.20;;;6.80;99.90;;;;;;4971732;28;20733;-71
2021/12/02 01:05:51;;;;;;;0.40;0.20;;;6.80;99.90;;;;;;4971305;28;20467;-71
2021/12/02 01:08:18;;;;;;;0.40;0.20;;;6.70;99.90;;;;;;4971859;28;20396;-71
2021/12/02 01:10:45;;;;;;;0.40;0.20;;;6.70;99.90;;;;;;4971658;28;20385;-71
2021/12/02 01:13:11;;;;;;;0.40;0.20;;;6.70;99.90;;;;;;4971410;28;21076;-71
2021/12/02 01:15:37;;;;;;;0.40;0.20;;;6.70;99.90;;;;;;4971946;28;20392;-70
2021/12/02 01:18:03;;;;;;;0.40;0.20;;;6.70;99.90;;;;;;4971183;28;20403;-72
2021/12/02 01:20:31;;;;;;;0.40;0.20;;;6.70;99.90;;;;;;4971760;28;20396;-71
2021/12/02 01:22:59;;;;;;;0.40;0.20;;;6.60;99.90;;;;;;4970996;28;20503;-71
2021/12/02 01:25:27;;;;;;;0.40;0.20;;;6.60;99.90;;;;;;4972892;28;20391;-71
2021/12/02 01:27:55;;;;;;;0.40;0.20;;;6.60;99.90;;;;;;4974754;28;20891;-72
2021/12/02 01:30:21;;;;;;;0.40;0.20;;;6.60;99.90;;;;;;4975373;28;20388;-70
2021/12/02 01:32:48;;;;;;;1.00;0.50;;;6.60;99.90;;;;;;4975081;28;20408;-71
2021/12/02 01:35:17;;;;;;;0.40;0.20;;;6.60;99.90;;;;;;4969206;28;20548;-70
2021/12/02 01:37:45;;;;;;;0.40;0.20;;;6.50;99.90;;;;;;4956164;29;20390;-70
2021/12/02 01:40:11;;;;;;;0.40;0.20;;;6.60;99.90;;;;;;4955265;29;20389;-70
2021/12/02 01:42:40;;;;;;;0.40;0.20;;;6.60;99.90;;;;;;4955937;29;20449;-70
2021/12/02 01:45:06;;;;;;;0.40;0.30;;;6.60;99.90;;;;;;4938225;29;20412;-71
2021/12/02 01:47:35;;;;;;;0.40;0.20;;;6.60;99.90;;;;;;4956297;29;20405;-71
2021/12/02 01:50:04;;;;;;;0.40;0.20;;;6.50;99.90;;;;;;4937690;29;20850;-71
2021/12/02 01:52:32;;;;;;;0.40;0.20;;;6.60;99.90;;;;;;4955743;29;20397;-71
2021/12/02 01:55:08;;;;;;;0.40;0.20;;;6.60;99.90;;;;;;4955251;29;20418;-71
2021/12/02 01:57:40;;;;;;;0.40;0.20;;;6.60;99.90;;;;;;4955880;29;20433;-71
2021/12/02 02:00:15;;;;;;;0.40;0.30;;;6.70;99.90;;;;;;4930848;29;20397;-71
2021/12/02 02:02:42;;;;;;;0.40;0.20;;;6.70;99.90;;;;;;4955745;29;20408;-69
2021/12/02 02:05:12;;;;;;;0.40;0.20;;;6.70;99.90;;;;;;4955466;29;20833;-69
2021/12/02 02:07:54;;;;;;;0.40;0.20;;;6.60;99.90;;;;;;4955569;29;20473;-69
2021/12/02 02:10:20;;;;;;;0.40;0.20;;;6.60;99.90;;;;;;4955641;29;20476;-69
2021/12/02 02:12:47;;;;;;;0.40;0.20;;;6.70;99.90;;;;;;4955495;28;20496;-69
2021/12/02 02:15:12;;;;;;;0.55;0.50;;;6.60;99.90;;;;;;4954666;29;20891;-69
2021/12/02 02:17:50;;;;;;;0.40;0.20;;;6.60;99.90;;;;;;4955643;29;20484;-70
2021/12/02 02:20:21;;;;;;;0.40;0.20;;;6.60;99.90;;;;;;4955991;29;20398;-69
2021/12/02 02:22:47;;;;;;;0.40;0.20;;;6.70;99.90;;;;;;4955255;29;20737;-70
2021/12/02 02:25:14;;;;;;;0.40;0.30;;;6.60;99.90;;;;;;4954875;29;20480;-70
2021/12/02 02:27:40;;;;;;;0.80;0.80;;;6.70;99.90;;;;;;4955270;29;20411;-69
2021/12/02 02:30:09;;;;;;;0.40;0.20;;;6.70;99.90;;;;;;4937479;29;20532;-69
2021/12/02 02:32:34;;;;;;;0.40;0.20;;;6.80;99.90;;;;;;4955230;29;20400;-69
2021/12/02 02:35:00;;;;;;;0.40;0.20;;;6.70;99.90;;;;;;4958758;28;20393;-69
2021/12/02 02:37:31;;;;;;;0.40;0.20;;;6.60;99.90;;;;;;4973361;28;20392;-69
2021/12/02 02:39:56;;;;;;;0.40;0.20;;;6.60;99.90;;;;;;4974027;28;20385;-68
2021/12/02 02:42:24;;;;;;;0.40;0.20;;;6.60;99.90;;;;;;4974115;28;20872;-69
2021/12/02 02:44:51;;;;;;;0.40;0.20;;;6.60;99.90;;;;;;4974321;28;20380;-69
2021/12/02 02:47:16;;;;;;;0.40;0.20;;;6.50;99.90;;;;;;4973948;28;20403;-68
2021/12/02 02:49:42;;;;;;;0.40;0.20;;;6.50;99.90;;;;;;4974084;28;20384;-69
2021/12/02 02:52:08;;;;;;;0.40;0.20;;;6.50;99.90;;;;;;4973938;28;20407;-69
2021/12/02 02:54:33;;;;;;;0.40;0.20;;;6.50;99.90;;;;;;4973780;28;20418;-68
2021/12/02 02:57:03;;;;;;;0.40;0.20;;;6.40;99.90;;;;;;4973678;28;20429;-69
2021/12/02 02:59:40;;;;;;;0.40;0.20;;;6.50;99.90;;;;;;4957334;28;20428;-69
2021/12/02 03:04:56;;;;;;;0.40;0.30;;;6.40;99.90;;;;;;4974059;28;20391;-68
2021/12/02 03:09:54;;;;;;;0.40;0.20;;;6.40;99.90;;;;;;4973676;28;20384;-69
2021/12/02 03:12:27;;;;;;;0.40;0.20;;;6.40;99.90;;;;;;4973843;28;20407;-69
2021/12/02 03:17:29;;;;;;;0.40;0.20;;;6.40;99.90;;;;;;4973996;28;20627;-70
2021/12/02 03:19:54;;;;;;;0.40;0.20;;;6.40;99.90;;;;;;4972871;28;20400;-70
2021/12/02 03:22:20;;;;;;;0.40;0.25;;;6.40;99.90;;;;;;4973371;28;20868;-70
2021/12/02 03:24:46;;;;;;;0.40;0.20;;;6.40;99.90;;;;;;4973399;28;20928;-69
2021/12/02 03:27:12;;;;;;;0.40;0.20;;;6.50;99.90;;;;;;4973065;28;20420;-70
2021/12/02 03:29:37;;;;;;;0.40;0.20;;;6.50;99.90;;;;;;4973446;28;20864;-69
2021/12/02 03:32:04;;;;;;;0.40;0.20;;;6.50;99.90;;;;;;4973070;28;20456;-69
2021/12/02 03:34:30;;;;;;;0.40;0.20;;;6.50;99.90;;;;;;4972917;28;20491;-69
2021/12/02 03:36:55;;;;;;;0.40;0.20;;;6.50;99.90;;;;;;4953586;29;20489;-69
2021/12/02 03:39:21;;;;;;;0.40;0.20;;;6.50;99.90;;;;;;4954346;29;20386;-69
2021/12/02 03:41:47;;;;;;;0.40;0.20;;;6.50;99.90;;;;;;4954021;29;20409;-69
2021/12/02 03:44:13;;;;;;;0.40;0.20;;;6.40;99.90;;;;;;4953309;29;20390;-69
2021/12/02 03:46:40;;;;;;;0.40;0.25;;;6.50;99.90;;;;;;4953746;29;20791;-69
2021/12/02 03:49:06;;;;;;;0.40;0.20;;;6.40;99.90;;;;;;4952925;28;20390;-69
2021/12/02 03:51:32;;;;;;;0.40;0.20;;;6.60;99.90;;;;;;4953939;29;20440;-69
2021/12/02 03:53:57;;;;;;;0.40;0.20;;;6.60;99.90;;;;;;4952811;29;20830;-69
2021/12/02 03:56:24;;;;;;;0.40;0.20;;;6.60;99.90;;;;;;4953780;29;20400;-69
2021/12/02 03:58:51;;;;;;;0.40;0.20;;;6.60;99.90;;;;;;4953759;29;20400;-69
2021/12/02 04:01:18;;;;;;;0.40;0.20;;;6.60;99.90;;;;;;4953132;29;20936;-69
2021/12/02 04:03:44;;;;;;;0.40;0.20;;;6.60;99.90;;;;;;4953677;29;20397;-68
2021/12/02 04:06:11;;;;;;;0.40;0.20;;;6.60;99.90;;;;;;4953138;29;20404;-68
2021/12/02 04:08:42;;;;;;;0.40;0.20;;;6.50;99.90;;;;;;4953362;29;20718;-68
2021/12/02 04:11:15;;;;;;;0.40;0.20;;;6.70;99.90;;;;;;4953034;29;20386;-69
2021/12/02 04:16:26;;;;;;;0.40;0.20;;;6.60;99.90;;;;;;4953188;29;20420;-69
2021/12/02 04:18:52;;;;;;;0.40;0.30;;;6.60;99.90;;;;;;4953138;28;20467;-69
2021/12/02 04:21:18;;;;;;;0.40;0.20;;;6.70;99.90;;;;;;4952771;29;20873;-69
2021/12/02 04:23:43;;;;;;;0.40;0.20;;;6.60;99.90;;;;;;4953175;29;20854;-69
2021/12/02 04:26:09;;;;;;;0.40;0.30;;;6.50;99.90;;;;;;4952836;29;20869;-69
2021/12/02 04:28:35;;;;;;;0.40;0.20;;;6.60;99.90;;;;;;4953070;29;20763;-68
2021/12/02 04:31:01;;;;;;;0.40;0.20;;;6.60;99.90;;;;;;4935596;29;20429;-70
2021/12/02 04:33:29;;;;;;;0.40;0.20;;;6.60;99.90;;;;;;4935988;29;20587;-68
2021/12/02 04:35:55;;;;;;;0.40;0.20;;;6.60;99.90;;;;;;4964818;28;20424;-69
2021/12/02 04:38:21;;;;;;;0.40;0.40;;;6.70;99.90;;;;;;4971978;28;20760;-69
2021/12/02 04:40:47;;;;;;;0.40;0.30;;;6.70;99.90;;;;;;4972132;28;20389;-69
2021/12/02 04:43:13;;;;;;;0.40;0.20;;;6.60;99.90;;;;;;4971806;28;20400;-68
2021/12/02 04:45:39;;;;;;;0.40;0.30;;;6.60;99.90;;;;;;4972141;28;20753;-68
2021/12/02 04:48:06;;;;;;;7.50;0.60;;;6.50;99.90;;;;;;4967671;28;20851;-69
2021/12/02 04:50:32;;;;;;;0.40;0.30;;;6.60;99.90;;;;;;4962334;28;20451;-70
2021/12/02 04:52:57;;;;;;;0.80;0.60;;;6.50;99.90;;;;;;4962059;28;20425;-68
2021/12/02 04:55:23;;;;;;;1.00;1.00;;;6.60;99.90;;;;;;4959781;28;20762;-69
2021/12/02 04:57:49;;;;;;;0.40;0.30;;;6.50;99.90;;;;;;4963737;28;20389;-68
2021/12/02 05:00:16;;;;;;;0.40;0.20;;;6.50;99.90;;;;;;4960444;28;20414;-70
2021/12/02 05:02:42;;;;;;;0.40;0.20;;;6.50;99.90;;;;;;4963263;28;20738;-68
2021/12/02 05:05:09;;;;;;;0.40;0.20;;;6.50;99.90;;;;;;4959576;28;20386;-69
2021/12/02 05:07:35;;;;;;;0.40;0.20;;;6.40;99.90;;;;;;4961801;28;20739;-69
2021/12/02 05:10:01;;;;;;;0.50;0.40;;;6.40;99.90;;;;;;4971750;28;20383;-68
2021/12/02 05:12:27;;;;;;;0.40;0.20;;;6.40;99.90;;;;;;4972148;28;20396;-69
2021/12/02 05:14:52;;;;;;;0.40;0.30;;;6.40;99.90;;;;;;4972734;28;20701;-69
2021/12/02 05:17:18;;;;;;;0.40;0.30;;;6.40;99.90;;;;;;4971429;28;20396;-70
2021/12/02 05:19:44;;;;;;;0.40;0.20;;;6.40;99.90;;;;;;4967940;28;20438;-69
2021/12/02 05:22:10;;;;;;;0.40;0.20;;;6.50;99.90;;;;;;4959749;28;20430;-69
2021/12/02 05:24:36;;;;;;;0.40;0.30;;;6.50;99.90;;;;;;4961899;28;20414;-69
2021/12/02 05:27:02;;;;;;;0.40;0.20;;;6.50;99.90;;;;;;4953142;28;20382;-71
2021/12/02 05:29:28;;;;;;;0.40;0.20;;;6.40;99.90;;;;;;4952161;29;20409;-71
2021/12/02 05:31:53;;;;;;;0.40;0.20;;;6.50;99.90;;;;;;4952309;29;20866;-70
2021/12/02 05:34:19;;;;;;;0.40;0.30;;;6.50;99.90;;;;;;4951759;29;20442;-70
2021/12/02 05:36:45;;;;;;;0.40;0.20;;;6.40;99.90;;;;;;4970777;28;20814;-70
2021/12/02 05:39:10;;;;;;;0.40;0.23;;;6.40;99.90;;;;;;4971111;28;20384;-71
2021/12/02 05:41:36;;;;;;;0.40;0.30;;;6.40;99.90;;;;;;4971506;28;20411;-70
2021/12/02 05:44:02;;;;;;;0.40;0.20;;;6.40;99.90;;;;;;4972117;28;20392;-70
2021/12/02 05:46:28;;;;;;;0.40;0.30;;;6.40;99.90;;;;;;4960646;28;20393;-70
2021/12/02 05:48:54;;;;;;;0.40;0.20;;;6.40;99.90;;;;;;4952429;29;20863;-69
2021/12/02 05:51:23;;;;;;;0.40;0.20;;;6.40;99.90;;;;;;4951186;29;20413;-70
2021/12/02 05:53:49;;;;;;;0.40;0.20;;;6.40;99.90;;;;;;4952306;29;20478;-70
2021/12/02 05:56:15;;;;;;;0.40;0.20;;;6.40;99.90;;;;;;4951879;29;20409;-71
2021/12/02 05:58:41;;;;;;;0.40;0.30;;;6.30;99.90;;;;;;4952303;28;20390;-70
2021/12/02 06:01:06;;;;;;;0.40;0.20;;;6.40;99.90;;;;;;4966707;28;20487;-71
2021/12/02 06:03:36;;;;;;;0.40;0.20;;;6.40;99.90;;;;;;4971265;28;20396;-71
2021/12/02 06:06:05;;;;;;;0.40;0.20;;;6.30;99.90;;;;;;4971765;28;20718;-70
2021/12/02 06:08:32;;;;;;;0.40;0.30;;;6.30;99.90;;;;;;4971208;28;20455;-69
2021/12/02 06:10:57;;;;;;;0.40;0.30;;;6.40;99.90;;;;;;4971806;28;20416;-70
2021/12/02 06:13:25;;;;;;;0.40;0.20;;;6.30;99.90;;;;;;4973928;28;20550;-69
2021/12/02 06:15:51;;;;;;;0.40;0.30;;;6.30;99.90;;;;;;4974851;28;20447;-71
2021/12/02 06:18:16;;;;;;;0.40;0.20;;;6.30;99.90;;;;;;4974595;28;20392;-70
2021/12/02 06:20:43;;;;;;;0.40;0.20;;;6.30;99.90;;;;;;4974582;28;20483;-70
2021/12/02 06:23:08;;;;;;;0.40;0.20;;;6.30;99.90;;;;;;4974018;28;20396;-71
2021/12/02 06:28:03;;;;;;;0.40;0.20;;;6.30;99.90;;;;;;4974915;28;20385;-70
2021/12/02 06:30:29;;;;;;;0.40;0.30;;;6.40;99.90;;;;;;4973861;28;20751;-70
2021/12/02 06:32:55;;;;;;;0.40;0.20;;;6.30;99.90;;;;;;4957401;28;20427;-71
2021/12/02 06:35:21;;;;;;;0.40;0.30;;;6.30;99.90;;;;;;4967056;28;20814;-69
2021/12/02 06:37:47;;;;;;;0.40;0.40;;;6.30;99.90;;;;;;4955651;29;20382;-70
2021/12/02 06:40:14;;;;;;;0.40;0.20;;;6.30;99.90;;;;;;4954876;29;20749;-70
2021/12/02 06:42:41;;;;;;;0.40;0.20;;;6.20;99.90;;;;;;4955698;29;20426;-71
2021/12/02 06:45:08;;;;;;;0.40;0.20;;;6.30;99.90;;;;;;4954972;29;20409;-72
2021/12/02 06:47:40;;;;;;;0.40;0.20;;;6.30;99.90;;;;;;4955713;29;20401;-69
2021/12/02 06:50:15;;;;;;;0.40;0.20;;;6.30;99.90;;;;;;4954965;29;20560;-73
2021/12/02 06:52:41;;;;;;;0.40;0.30;;;6.20;99.90;;;;;;4955605;29;20397;-70
2021/12/02 06:55:08;;;;;;;0.40;0.20;;;6.20;99.90;;;;;;4954744;29;20908;-71
2021/12/02 06:57:34;;;;;;;0.40;0.20;;;6.20;99.90;;;;;;4955164;29;20390;-72
2021/12/02 07:00:04;;;;;;;0.40;0.30;;;6.20;99.90;;;;;;4954960;29;20389;-71
2021/12/02 07:02:30;;;;;;;0.40;0.20;;;6.30;99.90;;;;;;4954670;29;20389;-69
2021/12/02 07:04:58;;;;;;;0.50;0.40;;;6.30;99.90;;;;;;4955153;29;20398;-70
2021/12/02 07:07:24;;;;;;;0.40;0.20;;;6.30;99.90;;;;;;4954523;29;20457;-70
2021/12/02 07:09:49;;;;;;;0.40;0.28;;;6.30;99.90;;;;;;4954870;29;20422;-70
2021/12/02 07:12:18;;;;;;;0.40;0.30;;;6.30;99.90;;;;;;4954459;29;20435;-70
2021/12/02 07:14:47;;;;;;;0.40;0.25;;;6.30;99.90;;;;;;4954979;29;20424;-70
2021/12/02 07:17:13;;;;;;;0.40;0.20;;;6.30;99.90;;;;;;4954024;29;20400;-71
2021/12/02 07:19:40;;;;;;;0.40;0.20;;;6.40;99.90;;;;;;4954909;29;20456;-71
2021/12/02 07:22:06;;;;;;;0.40;0.20;;;6.30;99.90;;;;;;4954660;28;20398;-70
2021/12/02 07:24:32;;;;;;;0.40;0.30;;;6.30;99.90;;;;;;4953708;29;20398;-71
2021/12/02 07:26:57;;;;;;;0.40;0.20;;;6.40;99.90;;;;;;4954633;29;20394;-71
2021/12/02 07:29:23;;;;;;;0.40;0.20;;;6.40;99.90;;;;;;4954048;29;20390;-70
2021/12/02 07:31:50;;;;;;;0.40;0.30;;;6.30;99.90;;;;;;4954519;29;20386;-69
2021/12/02 07:34:17;;;;;;;0.40;0.22;;;6.40;99.90;;;;;;4936727;29;20484;-71
2021/12/02 07:36:44;;;;;;;0.40;0.20;;;6.40;99.90;;;;;;4954619;29;20390;-71
2021/12/02 07:39:10;;;;;;;0.40;0.20;;;6.40;99.90;;;;;;4954058;29;20394;-71
2021/12/02 07:41:39;;;;;;;0.40;0.20;;;6.40;99.90;;;;;;4954182;29;20532;-70
2021/12/02 07:44:06;;;;;;;0.40;0.30;;;6.40;99.90;;;;;;4937347;29;20406;-72
2021/12/02 07:46:32;;;;;;;0.40;0.20;;;6.30;99.90;;;;;;4953620;29;20401;-71
2021/12/02 07:48:58;;;;;;;0.40;0.20;;;6.30;99.90;;;;;;4954315;29;20433;-71
2021/12/02 07:51:29;;;;;;;0.40;0.20;;;6.30;99.90;;;;;;4953224;29;20414;-69
2021/12/02 07:53:58;;;;;;;0.40;0.30;;;6.40;99.90;;;;;;4937281;29;20774;-71
2021/12/02 07:56:24;;;;;;;0.40;0.20;;;6.40;99.90;;;;;;4953605;29;20449;-71
2021/12/02 07:58:50;;;;;;;0.40;0.20;;;6.30;99.90;;;;;;4954103;29;20878;-71
2021/12/02 08:01:17;;;;;;;0.60;0.50;;;6.30;99.90;;;;;;4953601;29;20393;-72
2021/12/02 08:03:44;;;;;;;0.40;0.20;;;6.30;99.90;;;;;;4954179;29;20476;-71
2021/12/02 08:06:15;;;;;;;0.40;0.20;;;6.40;99.90;;;;;;4953776;29;20759;-71
2021/12/02 08:08:42;;;;;;;0.40;0.20;;;6.40;99.90;;;;;;4954014;29;20473;-70
2021/12/02 08:11:09;;;;;;;0.40;0.20;;;6.40;99.90;;;;;;4953993;29;20397;-71
2021/12/02 08:13:35;;;;;;;0.40;0.30;;;6.40;99.90;;;;;;4953149;29;20418;-71
2021/12/02 08:16:05;;;;;;;0.40;0.20;;;6.30;99.90;;;;;;4953872;29;20418;-71
2021/12/02 08:18:31;;;;;;;0.40;0.20;;;6.30;99.90;;;;;;4953304;29;20421;-71
2021/12/02 08:20:58;;;;;;;0.40;0.20;;;6.40;99.90;;;;;;4953635;29;20401;-71
2021/12/02 08:23:25;;;;;;;0.40;0.20;;;6.40;99.90;;;;;;4953172;29;20398;-71
2021/12/02 08:25:51;;;;;;;0.40;0.30;;;6.30;99.90;;;;;;4953810;29;20731;-71
2021/12/02 08:28:17;;;;;;;0.40;0.22;;;6.40;99.90;;;;;;4953106;29;20444;-71
2021/12/02 08:30:43;;;;;;;0.40;0.30;;;6.30;99.90;;;;;;4953783;29;20869;-71
2021/12/02 08:33:12;;;;;;;0.40;0.20;;;6.40;99.90;;;;;;4953619;29;20413;-71
2021/12/02 08:35:38;;;;;;;0.40;0.20;;;6.40;99.90;;;;;;4961851;28;20456;-70
2021/12/02 08:38:12;;;;;;;0.40;0.20;;;6.40;99.90;;;;;;4972450;28;20857;-69
2021/12/02 08:40:40;;;;;;;0.40;0.30;;;6.30;99.90;;;;;;4972637;28;20435;-71
2021/12/02 08:43:12;;;;;;;0.40;0.30;;;6.30;99.90;;;;;;4955387;28;20408;-71
2021/12/02 08:45:39;;;;;;;0.40;0.30;;;6.40;99.90;;;;;;4972149;28;20888;-70
2021/12/02 08:48:05;;;;;;;0.40;0.30;;;6.40;99.90;;;;;;4972453;28;20384;-71
2021/12/02 08:50:33;;;;;;;0.40;0.30;;;6.40;99.90;;;;;;4971920;28;20420;-71
2021/12/02 08:53:00;;;;;;;0.40;0.30;;;6.30;99.90;;;;;;4972487;28;20776;-70
2021/12/02 08:55:29;;;;;;;0.40;0.20;;;6.30;99.90;;;;;;4972282;28;20407;-70
2021/12/02 08:57:54;;;;;;;0.40;0.30;;;6.40;99.90;;;;;;4972564;28;20411;-70
2021/12/02 09:00:27;;;;;;;0.40;0.20;;;6.30;99.90;;;;;;4971696;28;20475;-71
2021/12/02 09:02:54;;;;;;;0.40;0.20;;;6.10;99.90;;;;;;4972596;28;20725;-70
2021/12/02 09:05:20;;;;;;;0.40;0.28;;;6.10;99.90;;;;;;4971925;28;20384;-71
2021/12/02 09:07:46;;;;;;;0.40;0.20;;;6.20;99.90;;;;;;4954968;28;20451;-70
2021/12/02 09:10:12;;;;;;;0.40;0.20;;;6.20;99.90;;;;;;4972467;28;20395;-71
2021/12/02 09:12:39;;;;;;;0.40;0.20;;;6.20;99.90;;;;;;4971468;28;20452;-69
2021/12/02 09:15:09;;;;;;;0.40;0.20;;;6.20;99.90;;;;;;4972406;28;20466;-70
2021/12/02 09:17:35;;;;;;;0.40;0.30;;;6.20;99.90;;;;;;4971968;28;20388;-70
2021/12/02 09:20:02;;;;;;;0.40;0.20;;;6.20;99.90;;;;;;4971989;28;20765;-71
2021/12/02 09:22:28;;;;;;;0.40;0.20;;;6.20;99.90;;;;;;4971511;28;20385;-71
2021/12/02 09:24:54;;;;;;;0.50;0.40;;;6.10;99.90;;;;;;4972602;28;20857;-70
2021/12/02 09:27:20;;;;;;;0.40;0.20;;;6.10;99.90;;;;;;4971484;28;20860;-71
2021/12/02 09:29:46;;;;;;;0.40;0.20;;;6.20;99.90;;;;;;4972319;28;20395;-69
2021/12/02 09:32:12;;;;;;;0.40;0.20;;;6.00;99.90;;;;;;4972111;28;20387;-70
2021/12/02 09:34:38;;;;;;;0.40;0.20;;;6.00;99.90;;;;;;4970189;28;20499;-71
2021/12/02 09:37:04;;;;;;;0.40;0.30;;;6.00;99.90;;;;;;4952779;29;20400;-70
2021/12/02 09:39:32;;;;;;;0.40;0.20;;;6.00;99.90;;;;;;4952187;29;20750;-71
2021/12/02 09:41:58;;;;;;;0.40;0.20;;;6.00;99.90;;;;;;4952795;29;20885;-70
2021/12/02 09:44:24;;;;;;;0.40;0.20;;;6.00;99.90;;;;;;4952161;29;20385;-70
2021/12/02 09:46:51;;;;;;;0.40;0.20;;;5.90;99.90;;;;;;4954435;28;20389;-70
2021/12/02 09:49:17;;;;;;;0.40;0.30;;;5.90;99.90;;;;;;4956485;29;20481;-73
2021/12/02 09:54:22;;;;;;;0.40;0.30;;;5.90;99.90;;;;;;4955389;29;20433;-72
2021/12/02 09:56:51;;;;;;;0.40;0.20;;;5.90;99.90;;;;;;4956426;29;20389;-71
2021/12/02 10:01:58;;;;;;;0.60;0.60;;;5.80;99.90;;;;;;4956465;29;20720;-70
2021/12/02 10:04:26;;;;;;;0.40;0.20;;;5.80;99.90;;;;;;4955746;29;20485;-70
2021/12/02 10:07:31;;;;;;;0.40;0.20;;;6.00;99.90;;;;;;4956550;29;20397;-71
2021/12/02 10:12:39;;;;;;;0.40;0.20;;;5.90;99.90;;;;;;4955340;29;20480;-70
2021/12/02 10:15:14;;;;;;;0.40;0.22;;;5.80;99.90;;;;;;4956138;29;20888;-70
2021/12/02 10:17:43;;;;;;;0.40;0.20;;;5.90;99.90;;;;;;4955496;29;20413;-70
2021/12/02 10:20:30;;;;;;;0.40;0.20;;;5.80;99.90;;;;;;4956022;29;20394;-70
2021/12/02 10:26:04;;;;;;;0.40;0.20;;;5.90;99.90;;;;;;4955886;29;20476;-70
2021/12/02 10:28:34;;;;;;;0.40;0.30;;;5.80;99.90;;;;;;4955236;29;20401;-71
2021/12/02 10:31:04;;;;;;;0.40;0.20;;;5.80;99.90;;;;;;4955792;29;20396;-71
2021/12/02 10:33:31;;;;;;;0.40;0.20;;;5.80;99.90;;;;;;4954826;29;20426;-71
2021/12/02 10:35:57;;;;;;;0.40;0.20;;;5.70;99.90;;;;;;4967522;28;20804;-72
2021/12/02 10:38:44;;;;;;;0.40;0.30;;;5.70;99.90;;;;;;4974253;28;20407;-71
2021/12/02 10:41:25;;;;;;;0.40;0.28;;;5.80;99.90;;;;;;4975095;28;20730;-72
2021/12/02 10:44:18;;;;;;;0.40;0.30;;;5.80;99.90;;;;;;4974864;28;20808;-72
2021/12/02 10:46:52;;;;;;;0.40;0.30;;;5.80;99.90;;;;;;4974309;28;20459;-73
2021/12/02 10:49:19;;;;;;;0.40;0.20;;;5.70;99.90;;;;;;4974703;28;20400;-70
2021/12/02 10:51:50;;;;;;;0.40;0.20;;;5.60;99.90;;;;;;4974334;28;20948;-68
2021/12/02 10:54:32;;;;;;;0.40;0.28;;;5.60;99.90;;;;;;4974756;28;20499;-69
2021/12/02 10:57:06;;;;;;;0.40;0.20;;;5.50;99.90;;;;;;4974455;28;20530;-70
2021/12/02 10:59:39;;;;;;;0.40;0.20;;;5.40;99.90;;;;;;4973388;28;20471;-70
2021/12/02 11:02:08;;;;;;;0.40;0.30;;;5.40;99.90;;;;;;4974582;28;20404;-70
2021/12/02 11:04:38;;;;;;;0.40;0.20;;;5.40;99.90;;;;;;4973576;28;20738;-71
2021/12/02 11:07:09;;;;;;;0.40;0.30;;;5.40;99.90;;;;;;4957076;28;20885;-69
2021/12/02 11:09:37;;;;;;;0.40;0.30;;;5.20;99.90;;;;;;4973682;28;20384;-69
2021/12/02 11:12:08;;;;;;;0.40;0.20;;;5.10;99.90;;;;;;4974476;28;20444;-68
2021/12/02 11:14:52;;;;;;;0.40;0.20;;;5.10;99.90;;;;;;4973611;28;20757;-69
2021/12/02 11:17:18;;;;;;;0.40;0.20;;;5.00;99.90;;;;;;4974342;28;20488;-69
2021/12/02 11:19:45;;;;;;;0.40;0.30;;;5.10;99.90;;;;;;4973510;28;20387;-68
2021/12/02 11:22:17;;;;;;;0.40;0.30;;;5.00;99.90;;;;;;4974283;28;20388;-69
2021/12/02 11:24:44;;;;;;;0.40;0.20;;;5.00;99.90;;;;;;4973472;28;20679;-68
2021/12/02 11:27:25;;;;;;;0.50;0.50;;;4.90;99.90;;;;;;4974090;28;20412;-68
2021/12/02 11:29:58;;;;;;;0.40;0.30;;;4.90;99.90;;;;;;4973992;28;20385;-68
2021/12/02 11:32:27;;;;;;;0.40;0.20;;;4.90;99.90;;;;;;4973564;28;20871;-70
2021/12/02 11:35:14;;;;;;;0.40;0.20;;;4.80;99.90;;;;;;4952712;29;20417;-68
2021/12/02 11:37:45;;;;;;;0.40;0.20;;;4.80;99.90;;;;;;4953849;29;20465;-69
2021/12/02 11:40:16;;;;;;;0.40;0.20;;;4.80;99.90;;;;;;4937188;29;20394;-68
2021/12/02 11:42:42;;;;;;;0.40;0.20;;;4.80;99.90;;;;;;4953759;29;20390;-68
2021/12/02 11:45:11;;;;;;;0.40;0.30;;;4.90;99.90;;;;;;4954129;29;20385;-68
2021/12/02 11:47:37;;;;;;;0.40;0.20;;;4.80;99.90;;;;;;4953411;29;20874;-68
2021/12/02 11:50:07;;;;;;;0.40;0.20;;;4.60;99.90;;;;;;4953974;29;20829;-68
2021/12/02 11:52:36;;;;;;;0.40;0.20;;;4.40;99.90;;;;;;4953333;29;20485;-70
2021/12/02 11:55:05;;;;;;;0.40;0.30;;;4.40;99.90;;;;;;4954132;29;20402;-70
2021/12/02 11:57:33;;;;;;;0.40;0.20;;;4.30;99.90;;;;;;4953161;29;20386;-70
2021/12/02 12:00:00;;;;;;;0.40;0.30;;;4.00;99.90;;;;;;4954342;29;20405;-71
2021/12/02 12:02:26;;;;;;;0.40;0.30;;;3.80;99.90;;;;;;4953572;29;20386;-69
2021/12/02 12:04:59;;;;;;;0.40;0.20;;;3.30;99.90;;;;;;4953714;29;20867;-69
2021/12/02 12:07:42;;;;;;;0.40;0.20;;;2.90;99.90;;;;;;4936956;29;20726;-69
2021/12/02 12:10:41;;;;;;;0.40;0.20;;;2.70;99.90;;;;;;4953393;28;20877;-69
2021/12/02 12:13:21;;;;;;;0.40;0.20;;;2.80;99.90;;;;;;4911877;29;20461;-70
2021/12/02 12:15:57;;;;;;;0.40;0.20;;;3.00;99.90;;;;;;4953280;29;20389;-70
2021/12/02 12:18:26;;;;;;;0.40;0.20;;;3.10;99.90;;;;;;4953733;29;20398;-70
2021/12/02 12:20:57;;;;;;;0.40;0.20;;;3.10;99.90;;;;;;4954033;29;20421;-70
2021/12/02 12:23:55;;;;;;;0.40;0.20;;;3.20;99.90;;;;;;4953375;29;20924;-70
2021/12/02 12:26:40;;;;;;;0.40;0.30;;;3.30;99.90;;;;;;4953530;29;20888;-70
2021/12/02 12:29:06;;;;;;;0.40;0.20;;;3.30;99.90;;;;;;4953358;29;20397;-70
2021/12/02 12:31:35;;;;;;;0.40;0.20;;;3.10;99.90;;;;;;4952960;29;20397;-70
2021/12/02 12:34:02;;;;;;;0.40;0.20;;;3.20;99.90;;;;;;4962446;28;20430;-70
2021/12/02 12:36:41;;;;;;;0.40;0.20;;;3.20;99.90;;;;;;4965764;28;20468;-70
2021/12/02 12:39:22;;;;;;;0.40;0.30;;;3.20;99.90;;;;;;4955669;28;20388;-70
2021/12/02 12:42:15;;;;;;;0.40;0.20;;;3.40;99.90;;;;;;4952810;29;20425;-70
2021/12/02 12:44:53;;;;;;;0.40;0.20;;;3.40;99.90;;;;;;4945227;28;20410;-68
2021/12/02 12:47:39;;;;;;;0.40;0.30;;;3.30;99.90;;;;;;4953275;29;20389;-67
2021/12/02 12:50:28;;;;;;;0.40;0.20;;;3.20;99.90;;;;;;4952608;29;20422;-68
2021/12/02 12:53:06;;;;;;;0.40;0.20;;;3.20;99.90;;;;;;4952921;29;20889;-68
2021/12/02 12:55:55;;;;;;;0.40;0.20;;;3.40;99.90;;;;;;4952545;29;20422;-68
2021/12/02 12:58:26;;;;;;;0.40;0.20;;;3.30;99.90;;;;;;4952952;29;20413;-67
2021/12/02 13:00:55;;;;;;;0.40;0.20;;;3.40;99.90;;;;;;4952492;29;20946;-68
2021/12/02 13:03:33;;;;;;;0.40;0.20;;;3.40;99.90;;;;;;4953076;29;20394;-68
2021/12/02 13:06:33;;;;;;;0.40;0.20;;;3.40;99.90;;;;;;4953038;29;20417;-68
2021/12/02 13:08:57;;;;;;;0.40;0.20;;;3.40;99.90;;;;;;4952178;29;20477;-68
2021/12/02 13:11:29;;;;;;;0.40;0.20;;;3.50;99.90;;;;;;4952973;29;20381;-69
2021/12/02 13:13:58;;;;;;;0.40;0.30;;;3.60;99.90;;;;;;4952920;29;20492;-69
2021/12/02 13:16:24;;;;;;;0.40;0.30;;;3.50;99.90;;;;;;4952820;29;20390;-69
2021/12/02 13:18:59;;;;;;;0.40;0.20;;;3.50;99.90;;;;;;4952079;29;20397;-69
2021/12/02 13:21:29;;;;;;;0.40;0.20;;;3.50;99.90;;;;;;4955741;28;20490;-68
2021/12/02 13:24:02;;;;;;;0.40;0.20;;;3.60;99.90;;;;;;4958872;29;20401;-68
2021/12/02 13:26:30;;;;;;;0.40;0.20;;;3.50;99.90;;;;;;4957917;28;20834;-68
2021/12/02 13:29:00;;;;;;;0.40;0.20;;;3.40;99.90;;;;;;4959214;28;20858;-68
2021/12/02 13:31:27;;;;;;;0.40;0.30;;;3.30;99.90;;;;;;4964251;28;20395;-68
2021/12/02 13:34:03;;;;;;;0.40;0.30;;;3.50;99.90;;;;;;4968868;28;20428;-68
2021/12/02 13:36:32;;;;;;;0.40;0.20;;;3.30;99.90;;;;;;4978243;28;20384;-68
2021/12/02 13:39:05;;;;;;;0.40;0.20;;;3.40;99.90;;;;;;4978414;28;20396;-68